| time (UTC) | temp F | wind direction | speed knots | gust knots | rain 1hr in | rain 24hr in | rain mn in | humidity % | barometer mb |
| 20260503072550 | 77 | 276 | 0.9 | 0.9 | 0.00 | 0.00 | 0.00 | 78 | 1013.9 |
| 20260503072048 | 77 | 341 | 1.7 | 1.7 | 0.00 | 0.00 | 0.00 | 76 | 1013.9 |
| 20260503071544 | 77 | 338 | 1.7 | 1.7 | 0.00 | 0.00 | 0.00 | 75 | 1013.5 |
| 20260503071041 | 77 | 328 | 1.7 | 1.7 | 0.00 | 0.00 | 0.00 | 75 | 1013.5 |
| 20260503070537 | 77 | 239 | 0.0 | 0.9 | 0.00 | 0.00 | 0.00 | 75 | 1013.4 |
| 20260503054957 | 77 | 239 | 0.0 | 0.0 | 0.00 | 0.00 | 0.00 | 78 | 1013.7 |
| 20260503054453 | 77 | 239 | 0.0 | 0.0 | 0.00 | 0.00 | 0.00 | 78 | 1013.6 |
| 20260503053950 | 77 | 239 | 0.0 | 0.0 | 0.00 | 0.00 | 0.00 | 79 | 1013.5 |
| 20260503053448 | 77 | 239 | 0.0 | 0.0 | 0.00 | 0.00 | 0.00 | 79 | 1013.4 |
| 20260503052945 | 78 | 240 | 0.0 | 0.0 | 0.00 | 0.00 | 0.00 | 79 | 1014.0 |
| 20260503052443 | 78 | 219 | 0.0 | 0.0 | 0.00 | 0.00 | 0.00 | 79 | 1014.4 |
| 20260503051938 | 78 | 228 | 0.9 | 0.9 | 0.00 | 0.00 | 0.00 | 79 | 1014.6 |
| 20260503051434 | 78 | 227 | 0.0 | 0.0 | 0.00 | 0.00 | 0.00 | 79 | 1014.3 |
| 20260503050932 | 78 | 228 | 0.0 | 0.0 | 0.00 | 0.00 | 0.00 | 79 | 1014.6 |
| 20260503050427 | 78 | 228 | 0.0 | 0.0 | 0.00 | 0.00 | 0.00 | 79 | 1014.8 |
| 20260503045926 | 78 | 233 | 0.0 | 0.0 | 0.00 | 0.00 | 0.00 | 78 | 1014.5 |
| 20260503045423 | 78 | 238 | 0.0 | 0.0 | 0.00 | 0.00 | 0.00 | 78 | 1014.7 |
| 20260503044919 | 78 | 233 | 0.0 | 0.0 | 0.00 | 0.00 | 0.00 | 78 | 1014.8 |
| 20260503044416 | 78 | 189 | 0.9 | 0.9 | 0.00 | 0.00 | 0.00 | 79 | 1014.7 |
| 20260503043914 | 78 | 179 | 0.9 | 0.9 | 0.00 | 0.00 | 0.00 | 79 | 1014.7 |
| 20260503043410 | 78 | 179 | 0.0 | 0.0 | 0.00 | 0.00 | 0.00 | 79 | 1014.7 |
| 20260503042907 | 78 | 179 | 0.9 | 0.9 | 0.00 | 0.00 | 0.00 | 79 | 1014.6 |
| 20260503042403 | 78 | 178 | 0.9 | 0.9 | 0.00 | 0.00 | 0.00 | 80 | 1014.6 |
| 20260503041859 | 78 | 178 | 0.0 | 0.0 | 0.00 | 0.00 | 0.00 | 80 | 1014.8 |
| 20260503041357 | 78 | 164 | 0.9 | 0.9 | 0.00 | 0.00 | 0.00 | 81 | 1014.6 |
| 20260503040854 | 79 | 178 | 0.9 | 0.9 | 0.00 | 0.00 | 0.00 | 79 | 1014.7 |
| 20260503040352 | 79 | 222 | 0.0 | 0.0 | 0.00 | 0.00 | 0.00 | 77 | 1014.4 |
| 20260503035848 | 80 | 235 | 0.0 | 0.0 | 0.00 | 0.00 | 0.00 | 75 | 1014.5 |
| 20260503035345 | 80 | 235 | 0.0 | 0.0 | 0.00 | 0.00 | 0.00 | 75 | 1014.5 |
| 20260503034842 | 80 | 235 | 1.7 | 1.7 | 0.00 | 0.00 | 0.00 | 74 | 1014.5 |
| 20260503034340 | 80 | 226 | 0.0 | 0.9 | 0.00 | 0.00 | 0.00 | 74 | 1014.6 |
| 20260503033837 | 80 | 226 | 0.0 | 0.0 | 0.00 | 0.00 | 0.00 | 74 | 1014.3 |
| 20260503033335 | 80 | 224 | 0.9 | 0.0 | 0.00 | 0.00 | 0.00 | 73 | 1014.3 |
| 20260503032832 | 80 | 224 | 0.0 | 0.0 | 0.00 | 0.00 | 0.00 | 73 | 1014.1 |
| 20260503032331 | 80 | 213 | 0.0 | 0.0 | 0.00 | 0.00 | 0.00 | 72 | 1014.0 |
| 20260503031828 | 80 | 213 | 0.0 | 0.0 | 0.00 | 0.00 | 0.00 | 72 | 1014.1 |
| 20260503031326 | 80 | 213 | 0.9 | 0.0 | 0.00 | 0.00 | 0.00 | 72 | 1014.1 |
| 20260503030822 | 80 | 213 | 0.0 | 0.0 | 0.00 | 0.00 | 0.00 | 71 | 1014.0 |
| 20260503030319 | 80 | 212 | 0.9 | 0.9 | 0.00 | 0.00 | 0.00 | 71 | 1014.2 |
| 20260503025815 | 80 | 257 | 0.0 | 0.0 | 0.00 | 0.00 | 0.00 | 70 | 1014.2 |
| 20260503025313 | 80 | 258 | 0.9 | 0.9 | 0.00 | 0.00 | 0.00 | 70 | 1014.3 |
| 20260503024809 | 81 | 264 | 0.0 | 0.0 | 0.00 | 0.00 | 0.00 | 69 | 1014.0 |
| 20260503024306 | 81 | 264 | 0.0 | 0.0 | 0.00 | 0.00 | 0.00 | 69 | 1013.9 |
| 20260503023803 | 81 | 210 | 0.9 | 0.9 | 0.00 | 0.00 | 0.00 | 68 | 1014.1 |
| 20260503023300 | 81 | 222 | 0.0 | 0.0 | 0.00 | 0.00 | 0.00 | 68 | 1014.2 |
| 20260503022756 | 81 | 203 | 0.9 | 0.9 | 0.00 | 0.00 | 0.00 | 67 | 1014.2 |
| 20260503022257 | 81 | 240 | 0.9 | 1.7 | 0.00 | 0.00 | 0.00 | 67 | 1014.0 |
| 20260503021754 | 81 | 193 | 0.9 | 0.9 | 0.00 | 0.00 | 0.00 | 66 | 1013.9 |
| 20260503021249 | 82 | 222 | 0.9 | 0.9 | 0.00 | 0.00 | 0.00 | 66 | 1013.7 |
| 20260503020748 | 82 | 205 | 0.9 | 0.9 | 0.00 | 0.00 | 0.00 | 65 | 1014.0 |
| 20260503020245 | 82 | 243 | 0.9 | 0.9 | 0.00 | 0.00 | 0.00 | 65 | 1014.0 |
| 20260503015741 | 82 | 197 | 0.9 | 0.9 | 0.00 | 0.00 | 0.00 | 64 | 1014.0 |
| 20260503015238 | 82 | 227 | 2.6 | 2.6 | 0.00 | 0.00 | 0.00 | 64 | 1013.8 |
| 20260503014734 | 82 | 229 | 1.7 | 1.7 | 0.00 | 0.00 | 0.00 | 63 | 1013.8 |
| 20260503014232 | 82 | 204 | 0.0 | 0.9 | 0.00 | 0.00 | 0.00 | 63 | 1013.7 |
| 20260503013729 | 82 | 228 | 1.7 | 1.7 | 0.00 | 0.00 | 0.00 | 62 | 1013.7 |
| 20260503013227 | 83 | 236 | 0.0 | 0.9 | 0.00 | 0.00 | 0.00 | 61 | 1013.4 |
| 20260503012724 | 83 | 237 | 2.6 | 3.5 | 0.00 | 0.00 | 0.00 | 61 | 1013.6 |
| 20260503012221 | 83 | 168 | 0.0 | 0.0 | 0.00 | 0.00 | 0.00 | 60 | 1013.6 |
| 20260503011717 | 83 | 217 | 1.7 | 2.6 | 0.00 | 0.00 | 0.00 | 59 | 1013.3 |
| 20260503011215 | 84 | 244 | 0.9 | 0.9 | 0.00 | 0.00 | 0.00 | 58 | 1013.3 |
| 20260503010710 | 84 | 208 | 0.9 | 0.9 | 0.00 | 0.00 | 0.00 | 57 | 1013.2 |
| 20260503010208 | 84 | 238 | 0.9 | 0.9 | 0.00 | 0.00 | 0.00 | 56 | 1013.2 |
| 20260503005705 | 84 | 268 | 1.7 | 1.7 | 0.00 | 0.00 | 0.00 | 55 | 1013.2 |
| 20260503005202 | 84 | 202 | 0.9 | 0.9 | 0.00 | 0.00 | 0.00 | 54 | 1013.1 |
| 20260503004658 | 85 | 229 | 0.9 | 0.9 | 0.00 | 0.00 | 0.00 | 54 | 1013.0 |
| 20260503004157 | 85 | 180 | 0.9 | 0.9 | 0.00 | 0.00 | 0.00 | 53 | 1012.9 |
| 20260503003654 | 85 | 236 | 1.7 | 1.7 | 0.00 | 0.00 | 0.00 | 52 | 1012.7 |
| 20260503003150 | 85 | 237 | 0.9 | 0.9 | 0.00 | 0.00 | 0.00 | 51 | 1012.7 |
| 20260503002647 | 86 | 236 | 0.9 | 0.9 | 0.00 | 0.00 | 0.00 | 50 | 1012.9 |
| 20260503002144 | 86 | 230 | 0.9 | 0.9 | 0.00 | 0.00 | 0.00 | 50 | 1012.6 |
| 20260503001640 | 86 | 263 | 1.7 | 1.7 | 0.00 | 0.00 | 0.00 | 49 | 1012.7 |
| 20260503001137 | 86 | 210 | 0.0 | 0.9 | 0.00 | 0.00 | 0.00 | 48 | 1012.6 |
| 20260503000635 | 87 | 244 | 0.9 | 0.9 | 0.00 | 0.00 | 0.00 | 48 | 1012.4 |
| 20260503000132 | 87 | 221 | 0.0 | 0.0 | 0.00 | 0.00 | 0.00 | 46 | 1012.5 |
| 20260502235628 | 87 | 234 | 1.7 | 1.7 | 0.00 | 0.00 | 0.00 | 45 | 1012.4 |
| 20260502235127 | 88 | 245 | 0.9 | 0.9 | 0.00 | 0.00 | 0.00 | 44 | 1012.3 |
| 20260502234622 | 88 | 251 | 1.7 | 2.6 | 0.00 | 0.00 | 0.00 | 44 | 1012.2 |
| 20260502234120 | 88 | 230 | 1.7 | 1.7 | 0.00 | 0.00 | 0.00 | 43 | 1012.1 |
| 20260502233615 | 88 | 240 | 1.7 | 1.7 | 0.00 | 0.00 | 0.00 | 42 | 1011.8 |
| 20260502233112 | 89 | 225 | 2.6 | 2.6 | 0.00 | 0.00 | 0.00 | 42 | 1011.9 |
| 20260502232608 | 89 | 205 | 0.9 | 0.9 | 0.00 | 0.00 | 0.00 | 41 | 1011.9 |
| 20260502232106 | 89 | 214 | 0.9 | 0.9 | 0.00 | 0.00 | 0.00 | 41 | 1011.5 |
| 20260502231602 | 89 | 214 | 0.9 | 0.9 | 0.00 | 0.00 | 0.00 | 40 | 1011.6 |
| 20260502231101 | 89 | 251 | 0.0 | 0.0 | 0.00 | 0.00 | 0.00 | 40 | 1011.6 |
| 20260502230558 | 89 | 199 | 0.9 | 0.9 | 0.00 | 0.00 | 0.00 | 40 | 1011.4 |
| 20260502230057 | 90 | 179 | 0.0 | 0.0 | 0.00 | 0.00 | 0.00 | 39 | 1011.4 |
| 20260502225552 | 90 | 241 | 0.0 | 0.0 | 0.00 | 0.00 | 0.00 | 39 | 1011.3 |
| 20260502225050 | 90 | 184 | 0.9 | 0.9 | 0.00 | 0.00 | 0.00 | 39 | 1011.2 |
| 20260502224545 | 90 | 256 | 0.9 | 0.9 | 0.00 | 0.00 | 0.00 | 38 | 1011.2 |
| 20260502224043 | 91 | 268 | 0.9 | 0.9 | 0.00 | 0.00 | 0.00 | 38 | 1011.2 |
| 20260502223540 | 91 | 273 | 1.7 | 1.7 | 0.00 | 0.00 | 0.00 | 38 | 1011.0 |
| 20260502223039 | 91 | 121 | 0.9 | 0.9 | 0.00 | 0.00 | 0.00 | 38 | 1011.1 |
| 20260502222535 | 92 | 178 | 0.9 | 0.9 | 0.00 | 0.00 | 0.00 | 37 | 1011.0 |
| 20260502222032 | 92 | 178 | 1.7 | 1.7 | 0.00 | 0.00 | 0.00 | 36 | 1011.0 |
| 20260502221527 | 92 | 265 | 1.7 | 1.7 | 0.00 | 0.00 | 0.00 | 36 | 1011.0 |
| 20260502221025 | 92 | 223 | 0.9 | 0.9 | 0.00 | 0.00 | 0.00 | 37 | 1011.0 |
| 20260502220520 | 93 | 276 | 1.7 | 2.6 | 0.00 | 0.00 | 0.00 | 36 | 1011.0 |
| 20260502220017 | 93 | 265 | 3.5 | 3.5 | 0.00 | 0.00 | 0.00 | 36 | 1011.0 |
| 20260502215515 | 93 | 266 | 0.9 | 1.7 | 0.00 | 0.00 | 0.00 | 36 | 1010.9 |
| 20260502215011 | 93 | 250 | 0.9 | 1.7 | 0.00 | 0.00 | 0.00 | 35 | 1011.0 |
| 20260502214508 | 93 | 214 | 1.7 | 1.7 | 0.00 | 0.00 | 0.00 | 35 | 1010.7 |
| 20260502214005 | 93 | 260 | 1.7 | 1.7 | 0.00 | 0.00 | 0.00 | 36 | 1010.9 |
| 20260502213502 | 94 | 273 | 2.6 | 1.7 | 0.00 | 0.00 | 0.00 | 35 | 1010.6 |
| 20260502213000 | 94 | 265 | 0.9 | 0.9 | 0.00 | 0.00 | 0.00 | 35 | 1011.0 |
| 20260502212459 | 94 | 296 | 1.7 | 1.7 | 0.00 | 0.00 | 0.00 | 34 | 1010.7 |
| 20260502211956 | 94 | 249 | 1.7 | 1.7 | 0.00 | 0.00 | 0.00 | 35 | 1010.7 |
| 20260502211451 | 94 | 243 | 2.6 | 2.6 | 0.00 | 0.00 | 0.00 | 35 | 1010.7 |
| 20260502210949 | 94 | 258 | 1.7 | 1.7 | 0.00 | 0.00 | 0.00 | 36 | 1010.7 |
| 20260502210446 | 95 | 276 | 1.7 | 1.7 | 0.00 | 0.00 | 0.00 | 36 | 1010.7 |
| 20260502205943 | 95 | 205 | 0.9 | 0.9 | 0.00 | 0.00 | 0.00 | 36 | 1010.7 |
| 20260502205439 | 94 | 175 | 1.7 | 1.7 | 0.00 | 0.00 | 0.00 | 38 | 1010.5 |
| 20260502204937 | 94 | 260 | 1.7 | 1.7 | 0.00 | 0.00 | 0.00 | 36 | 1010.7 |
| 20260502204433 | 94 | 177 | 0.9 | 1.7 | 0.00 | 0.00 | 0.00 | 36 | 1010.3 |
| 20260502203931 | 95 | 202 | 0.9 | 1.7 | 0.00 | 0.00 | 0.00 | 36 | 1010.5 |
| 20260502203428 | 95 | 270 | 1.7 | 1.7 | 0.00 | 0.00 | 0.00 | 36 | 1010.7 |
| 20260502202924 | 95 | 52 | 0.0 | 0.0 | 0.00 | 0.00 | 0.00 | 37 | 1010.7 |
| 20260502202421 | 94 | 131 | 0.0 | 0.9 | 0.00 | 0.00 | 0.00 | 35 | 1010.6 |
| 20260502201919 | 95 | 247 | 1.7 | 2.6 | 0.00 | 0.00 | 0.00 | 35 | 1010.5 |
| 20260502201415 | 95 | 219 | 2.6 | 3.5 | 0.00 | 0.00 | 0.00 | 36 | 1010.6 |
| 20260502200912 | 95 | 249 | 0.9 | 1.7 | 0.00 | 0.00 | 0.00 | 37 | 1010.7 |
| 20260502200407 | 94 | 220 | 1.7 | 1.7 | 0.00 | 0.00 | 0.00 | 37 | 1010.8 |
| 20260502195906 | 94 | 255 | 3.5 | 5.2 | 0.00 | 0.00 | 0.00 | 37 | 1011.0 |
| 20260502195403 | 95 | 223 | 1.7 | 1.7 | 0.00 | 0.00 | 0.00 | 37 | 1011.2 |
| 20260502194859 | 95 | 193 | 1.7 | 1.7 | 0.00 | 0.00 | 0.00 | 37 | 1010.8 |
| 20260502194356 | 94 | 185 | 0.9 | 0.9 | 0.00 | 0.00 | 0.00 | 38 | 1010.8 |
| 20260502193852 | 95 | 272 | 2.6 | 3.5 | 0.00 | 0.00 | 0.00 | 37 | 1010.8 |
| 20260502193349 | 94 | 263 | 1.7 | 1.7 | 0.00 | 0.00 | 0.00 | 38 | 1011.1 |
| 20260502192844 | 94 | 139 | 1.7 | 1.7 | 0.00 | 0.00 | 0.00 | 40 | 1010.9 |
| 20260502192342 | 94 | 214 | 1.7 | 1.7 | 0.00 | 0.00 | 0.00 | 40 | 1011.1 |
| 20260502191838 | 94 | 294 | 1.7 | 1.7 | 0.00 | 0.00 | 0.00 | 40 | 1011.0 |
| 20260502191337 | 95 | 238 | 2.6 | 2.6 | 0.00 | 0.00 | 0.00 | 40 | 1011.0 |
| 20260502190833 | 93 | 120 | 0.9 | 0.9 | 0.00 | 0.00 | 0.00 | 44 | 1011.0 |
| 20260502190331 | 94 | 274 | 0.9 | 1.7 | 0.00 | 0.00 | 0.00 | 41 | 1011.1 |
| 20260502185826 | 94 | 262 | 3.5 | 5.2 | 0.00 | 0.00 | 0.00 | 41 | 1011.2 |
| 20260502185322 | 94 | 282 | 2.6 | 2.6 | 0.00 | 0.00 | 0.00 | 41 | 1011.4 |
| 20260502184820 | 95 | 273 | 2.6 | 2.6 | 0.00 | 0.00 | 0.00 | 39 | 1011.3 |
| 20260502184315 | 95 | 195 | 0.9 | 1.7 | 0.00 | 0.00 | 0.00 | 41 | 1011.1 |
| 20260502183812 | 95 | 187 | 1.7 | 1.7 | 0.00 | 0.00 | 0.00 | 42 | 1011.3 |
| 20260502183308 | 95 | 231 | 1.7 | 2.6 | 0.00 | 0.00 | 0.00 | 39 | 1011.5 |
| 20260502182803 | 96 | 268 | 1.7 | 1.7 | 0.00 | 0.00 | 0.00 | 38 | 1011.3 |
| 20260502182259 | 95 | 158 | 0.9 | 1.7 | 0.00 | 0.00 | 0.00 | 40 | 1011.3 |
| 20260502181755 | 95 | 243 | 2.6 | 2.6 | 0.00 | 0.00 | 0.00 | 41 | 1011.3 |
| 20260502181255 | 95 | 107 | 0.9 | 0.9 | 0.00 | 0.00 | 0.00 | 42 | 1011.4 |
| 20260502180752 | 95 | 174 | 1.7 | 1.7 | 0.00 | 0.00 | 0.00 | 43 | 1011.6 |
| 20260502180249 | 95 | 109 | 1.7 | 3.5 | 0.00 | 0.00 | 0.00 | 43 | 1011.6 |
| 20260502170225 | 93 | 242 | 1.7 | 1.7 | 0.00 | 0.00 | 0.00 | 52 | 1011.9 |
| 20260502164213 | 90 | 85 | 0.9 | 0.9 | 0.00 | 0.00 | 0.00 | 55 | 1012.2 |
| 20260502163708 | 90 | 128 | 0.9 | 0.9 | 0.00 | 0.00 | 0.00 | 55 | 1012.3 |
| 20260502163205 | 90 | 127 | 0.9 | 0.9 | 0.00 | 0.00 | 0.00 | 56 | 1012.3 |
| 20260502162702 | 90 | 123 | 0.9 | 0.9 | 0.00 | 0.00 | 0.00 | 59 | 1012.3 |
| 20260502162158 | 91 | 106 | 0.9 | 1.7 | 0.00 | 0.00 | 0.00 | 54 | 1012.4 |
| 20260502161656 | 90 | 199 | 0.9 | 0.9 | 0.00 | 0.00 | 0.00 | 57 | 1012.4 |
| 20260502161152 | 89 | 125 | 0.0 | 0.0 | 0.00 | 0.00 | 0.00 | 56 | 1012.3 |
| 20260502160650 | 90 | 132 | 3.5 | 2.6 | 0.00 | 0.00 | 0.00 | 58 | 1012.3 |
| 20260502160149 | 90 | 143 | 0.9 | 0.9 | 0.00 | 0.00 | 0.00 | 57 | 1012.5 |
| 20260502152103 | 88 | 103 | 0.0 | 0.0 | 0.00 | 0.00 | 0.00 | 58 | 1013.0 |
| 20260502151600 | 88 | 277 | 1.7 | 3.5 | 0.00 | 0.00 | 0.00 | 58 | 1012.6 |
| 20260502151057 | 87 | 109 | 0.0 | 0.9 | 0.00 | 0.00 | 0.00 | 58 | 1012.8 |
| 20260502150555 | 87 | 120 | 0.0 | 0.0 | 0.00 | 0.00 | 0.00 | 59 | 1012.7 |
| 20260502130440 | 82 | 118 | 1.7 | 1.7 | 0.00 | 0.00 | 0.00 | 79 | 1012.5 |
| 20260502123422 | 80 | 116 | 0.9 | 0.9 | 0.00 | 0.00 | 0.00 | 82 | 1012.5 |
| 20260502122919 | 79 | 121 | 0.9 | 0.9 | 0.00 | 0.00 | 0.00 | 83 | 1012.5 |
| 20260502122415 | 79 | 113 | 1.7 | 1.7 | 0.00 | 0.00 | 0.00 | 83 | 1012.5 |
| 20260502121914 | 78 | 91 | 0.0 | 0.9 | 0.00 | 0.00 | 0.00 | 84 | 1012.5 |
| 20260502121410 | 78 | 121 | 0.9 | 0.9 | 0.00 | 0.00 | 0.00 | 85 | 1012.5 |
| 20260502120908 | 77 | 124 | 0.9 | 0.9 | 0.00 | 0.00 | 0.00 | 86 | 1012.6 |
| 20260502120404 | 77 | 115 | 0.9 | 0.9 | 0.00 | 0.00 | 0.00 | 87 | 1012.7 |
| 20260502115901 | 77 | 117 | 0.0 | 0.0 | 0.00 | 0.00 | 0.00 | 87 | 1012.5 |
| 20260502115359 | 76 | 118 | 0.0 | 0.0 | 0.00 | 0.00 | 0.00 | 88 | 1012.5 |
| 20260502114854 | 76 | 118 | 0.9 | 0.9 | 0.00 | 0.00 | 0.00 | 88 | 1012.6 |
| 20260502114352 | 75 | 115 | 0.0 | 0.0 | 0.00 | 0.00 | 0.00 | 89 | 1012.4 |
| 20260502113849 | 75 | 115 | 0.0 | 0.0 | 0.00 | 0.00 | 0.00 | 89 | 1012.5 |
| 20260502113346 | 74 | 118 | 0.0 | 0.0 | 0.00 | 0.00 | 0.00 | 90 | 1012.5 |
| 20260502112844 | 74 | 110 | 0.0 | 0.0 | 0.00 | 0.00 | 0.00 | 89 | 1012.5 |
| 20260502112341 | 74 | 125 | 0.0 | 0.0 | 0.00 | 0.00 | 0.00 | 89 | 1012.7 |
| 20260502111839 | 73 | 115 | 0.0 | 0.0 | 0.00 | 0.00 | 0.00 | 89 | 1012.6 |
| 20260502111336 | 73 | 107 | 0.0 | 0.0 | 0.00 | 0.00 | 0.00 | 89 | 1012.6 |
| 20260502110834 | 73 | 111 | 0.0 | 1.7 | 0.00 | 0.00 | 0.00 | 89 | 1012.5 |
| 20260502110332 | 73 | 131 | 0.0 | 0.0 | 0.00 | 0.00 | 0.00 | 89 | 1012.6 |
| 20260502105829 | 73 | 131 | 0.0 | 0.0 | 0.00 | 0.00 | 0.00 | 89 | 1012.6 |
| 20260502105326 | 73 | 131 | 0.0 | 0.0 | 0.00 | 0.00 | 0.00 | 89 | 1012.7 |
| 20260502104823 | 73 | 137 | 0.0 | 0.0 | 0.00 | 0.00 | 0.00 | 89 | 1012.6 |
| 20260502104320 | 73 | 160 | 0.0 | 0.0 | 0.00 | 0.00 | 0.00 | 89 | 1012.4 |
| 20260502103818 | 73 | 160 | 0.0 | 0.0 | 0.00 | 0.00 | 0.00 | 89 | 1012.4 |
| 20260502103315 | 73 | 160 | 0.0 | 0.0 | 0.00 | 0.00 | 0.00 | 88 | 1012.3 |
| 20260502102812 | 73 | 160 | 0.0 | 0.0 | 0.00 | 0.00 | 0.00 | 88 | 1012.5 |
| 20260502102308 | 73 | 160 | 0.0 | 0.0 | 0.00 | 0.00 | 0.00 | 89 | 1012.5 |
| 20260502101806 | 73 | 160 | 0.0 | 0.0 | 0.00 | 0.00 | 0.00 | 88 | 1012.4 |
| 20260502101304 | 73 | 160 | 0.0 | 0.0 | 0.00 | 0.00 | 0.00 | 88 | 1012.4 |
| 20260502100802 | 73 | 160 | 0.0 | 0.0 | 0.00 | 0.00 | 0.00 | 88 | 1012.3 |
| 20260502100301 | 73 | 160 | 0.0 | 0.0 | 0.00 | 0.00 | 0.00 | 87 | 1012.4 |
| 20260502091235 | 73 | 160 | 0.0 | 0.0 | 0.00 | 0.00 | 0.00 | 86 | 1012.4 |
| 20260502090732 | 73 | 160 | 0.0 | 0.0 | 0.00 | 0.00 | 0.00 | 86 | 1012.4 |
| 20260502090229 | 73 | 160 | 0.0 | 0.0 | 0.00 | 0.00 | 0.00 | 86 | 1012.5 |